createdAt,value
2023-03-22T00:02:57.210Z,10.05
2023-03-22T00:05:59.733Z,9.75
2023-03-22T00:09:01.865Z,9.73
2023-03-22T00:12:04.563Z,9.40
2023-03-22T00:15:07.611Z,10.30
2023-03-22T00:18:12.545Z,10.23
2023-03-22T00:21:16.706Z,9.63
2023-03-22T00:24:21.092Z,10.55
2023-03-22T00:27:23.273Z,10.13
2023-03-22T00:30:25.863Z,9.60
2023-03-22T00:33:30.404Z,10.20
2023-03-22T00:36:32.789Z,10.98
2023-03-22T00:39:35.213Z,11.55
2023-03-22T00:42:39.188Z,10.85
2023-03-22T00:45:41.553Z,10.30
2023-03-22T00:48:44.132Z,10.20
2023-03-22T00:51:46.488Z,11.12
2023-03-22T00:54:49.380Z,11.32
2023-03-22T00:57:51.674Z,10.75
2023-03-22T01:00:54.150Z,11.40
2023-03-22T01:03:56.493Z,11.50
2023-03-22T01:07:03.428Z,11.23
2023-03-22T01:10:06.689Z,11.43
2023-03-22T01:13:11.268Z,12.05
2023-03-22T01:16:13.493Z,11.45
2023-03-22T01:19:16.344Z,10.75
2023-03-22T01:22:18.559Z,12.65
2023-03-22T01:25:21.778Z,12.00
2023-03-22T01:28:26.862Z,11.38
2023-03-22T01:31:29.565Z,11.12
2023-03-22T01:34:31.941Z,11.23
2023-03-22T01:37:34.866Z,11.73
2023-03-22T01:40:38.524Z,11.12
2023-03-22T01:43:42.045Z,11.27
2023-03-22T01:46:46.929Z,11.43
2023-03-22T01:49:49.789Z,11.00
2023-03-22T01:52:53.381Z,10.93
2023-03-22T01:55:57.675Z,11.50
2023-03-22T01:59:01.104Z,10.32
2023-03-22T02:02:05.681Z,10.80
2023-03-22T02:05:09.005Z,10.45
2023-03-22T02:08:14.847Z,10.57
2023-03-22T02:11:30.813Z,10.23
2023-03-22T02:14:50.453Z,10.57
2023-03-22T02:18:11.268Z,10.10
2023-03-22T02:21:32.534Z,10.07
2023-03-22T02:25:07.222Z,10.00
2023-03-22T02:28:40.954Z,10.23
2023-03-22T02:31:58.725Z,10.73
2023-03-22T02:35:09.748Z,9.95
2023-03-22T02:38:15.215Z,10.07
2023-03-22T02:41:25.343Z,9.98
2023-03-22T02:44:52.154Z,10.10
2023-03-22T02:48:06.737Z,10.20
2023-03-22T02:51:19.853Z,10.43
2023-03-22T02:54:44.753Z,10.48
2023-03-22T02:57:56.869Z,11.18
2023-03-22T03:01:09.158Z,10.60
2023-03-22T03:04:18.259Z,10.60
2023-03-22T03:07:24.663Z,10.50
2023-03-22T03:10:28.474Z,10.73
2023-03-22T03:13:30.869Z,10.85
2023-03-22T03:16:37.222Z,11.35
2023-03-22T03:19:52.209Z,11.10
2023-03-22T03:23:00.099Z,11.35
2023-03-22T03:26:21.425Z,10.88
2023-03-22T03:29:36.058Z,10.68
2023-03-22T03:32:48.081Z,11.07
2023-03-22T03:35:59.864Z,10.75
2023-03-22T03:39:04.125Z,10.75
2023-03-22T03:42:12.406Z,11.48
2023-03-22T03:45:16.312Z,11.93
2023-03-22T03:48:22.300Z,10.57
2023-03-22T03:51:27.285Z,11.00
2023-03-22T03:54:29.952Z,11.10
2023-03-22T03:57:32.171Z,10.88
2023-03-22T04:00:35.564Z,10.23
2023-03-22T04:03:40.691Z,11.43
2023-03-22T04:06:43.957Z,11.48
2023-03-22T04:09:46.713Z,10.38
2023-03-22T04:12:49.214Z,11.23
2023-03-22T04:15:55.431Z,10.80
2023-03-22T04:18:58.007Z,11.25
2023-03-22T04:22:01.402Z,10.50
2023-03-22T04:25:11.663Z,11.15
2023-03-22T04:28:14.614Z,11.23
2023-03-22T04:31:18.464Z,10.65
2023-03-22T04:34:21.639Z,11.12
2023-03-22T04:37:27.482Z,11.48
2023-03-22T04:40:36.410Z,11.43
2023-03-22T04:43:39.393Z,11.35
2023-03-22T04:46:44.435Z,10.80
2023-03-22T04:49:46.720Z,11.00
2023-03-22T04:52:51.315Z,9.90
2023-03-22T04:55:57.924Z,11.45
2023-03-22T04:59:01.371Z,12.13
2023-03-22T05:02:03.927Z,10.90
2023-03-22T05:05:07.470Z,11.80
2023-03-22T05:08:09.785Z,11.40
2023-03-22T05:11:16.279Z,11.82
2023-03-22T05:14:19.870Z,12.57
2023-03-22T05:17:22.581Z,12.02
2023-03-22T05:20:25.202Z,11.10
2023-03-22T05:23:28.985Z,12.23
2023-03-22T05:26:31.606Z,11.38
2023-03-22T05:29:36.932Z,12.30
2023-03-22T05:32:43.805Z,12.43
2023-03-22T05:35:46.561Z,12.75
2023-03-22T05:38:50.650Z,11.95
2023-03-22T05:41:53.557Z,12.20
2023-03-22T05:44:56.268Z,11.90
2023-03-22T05:47:59.323Z,12.55
2023-03-22T05:51:06.078Z,12.73
2023-03-22T05:54:09.652Z,12.30
2023-03-22T05:57:13.060Z,12.15
2023-03-22T06:00:16.258Z,12.13
2023-03-22T06:03:22.382Z,12.57
2023-03-22T06:06:28.036Z,11.60
2023-03-22T06:09:31.114Z,11.73
2023-03-22T06:12:34.120Z,11.98
2023-03-22T06:15:37.417Z,12.15
2023-03-22T06:18:39.781Z,12.35
2023-03-22T06:21:43.288Z,13.25
2023-03-22T06:24:49.053Z,12.07
2023-03-22T06:27:52.324Z,12.98
2023-03-22T06:30:56.339Z,12.73
2023-03-22T06:33:59.231Z,11.90
2023-03-22T06:37:01.879Z,12.43
2023-03-22T06:40:07.369Z,12.80
2023-03-22T06:43:09.726Z,11.85
2023-03-22T06:46:14.084Z,12.55
2023-03-22T06:49:19.338Z,13.70
2023-03-22T06:52:22.150Z,12.88
2023-03-22T06:55:24.788Z,12.88
2023-03-22T06:58:27.353Z,12.55
2023-03-22T07:01:29.609Z,12.13
2023-03-22T07:04:33.105Z,11.55
2023-03-22T07:07:35.385Z,11.27
2023-03-22T07:10:39.238Z,11.43
2023-03-22T07:13:41.901Z,11.98
2023-03-22T07:16:44.781Z,11.30
2023-03-22T07:19:46.996Z,11.55
2023-03-22T07:22:50.845Z,11.12
2023-03-22T07:25:55.825Z,10.38
2023-03-22T07:28:58.761Z,10.32
2023-03-22T07:32:01.831Z,9.80
2023-03-22T07:35:05.851Z,10.68
2023-03-22T07:38:08.354Z,11.35
2023-03-22T07:41:11.652Z,10.02
2023-03-22T07:44:18.237Z,10.07
2023-03-22T07:47:37.834Z,10.63
2023-03-22T07:50:42.887Z,10.02
2023-03-22T07:53:45.362Z,10.50
2023-03-22T07:56:48.152Z,10.73
2023-03-22T07:59:50.693Z,11.57
2023-03-22T08:02:58.900Z,10.57
2023-03-22T08:06:12.838Z,11.75
2023-03-22T08:09:21.090Z,11.30
2023-03-22T08:12:29.516Z,10.50
2023-03-22T08:15:38.952Z,11.50
2023-03-22T08:19:03.700Z,11.05
2023-03-22T08:22:15.703Z,11.30
2023-03-22T08:25:26.905Z,11.73
2023-03-22T08:28:37.652Z,12.75
2023-03-22T08:31:45.234Z,13.00
2023-03-22T08:34:48.746Z,12.55
2023-03-22T08:37:57.178Z,11.80
2023-03-22T08:41:00.507Z,10.93
2023-03-22T08:44:04.615Z,10.52
2023-03-22T08:47:09.475Z,9.52
2023-03-22T08:50:13.148Z,10.05
2023-03-22T08:53:16.200Z,10.07
2023-03-22T08:56:22.639Z,9.88
2023-03-22T08:59:26.992Z,9.07
2023-03-22T09:02:30.251Z,10.05
2023-03-22T09:05:32.724Z,10.38
2023-03-22T09:08:35.338Z,9.30
2023-03-22T09:11:41.424Z,9.30
2023-03-22T09:14:46.739Z,8.93
2023-03-22T09:17:49.353Z,9.63
2023-03-22T09:20:52.775Z,8.85
2023-03-22T09:23:56.315Z,8.93
2023-03-22T09:26:59.929Z,9.73
2023-03-22T09:30:02.396Z,8.65
2023-03-22T09:33:06.517Z,9.25
2023-03-22T09:36:11.902Z,9.05
2023-03-22T09:39:16.310Z,8.95
2023-03-22T09:42:28.089Z,8.98
2023-03-22T09:45:38.661Z,9.75
2023-03-22T09:48:43.212Z,8.77
2023-03-22T09:51:48.940Z,9.82
2023-03-22T09:54:53.111Z,11.02
2023-03-22T09:58:37.046Z,9.38
2023-03-22T10:02:04.712Z,9.88
2023-03-22T10:05:50.174Z,10.25
2023-03-22T10:09:04.370Z,9.75
2023-03-22T10:12:28.221Z,9.77
2023-03-22T10:15:36.785Z,10.30
2023-03-22T10:18:45.025Z,10.27
2023-03-22T10:21:50.585Z,9.88
2023-03-22T10:24:53.890Z,11.00
2023-03-22T10:27:57.946Z,11.12
2023-03-22T10:31:02.718Z,11.02
2023-03-22T10:34:11.526Z,10.98
2023-03-22T10:37:32.145Z,11.40
2023-03-22T10:40:36.981Z,10.98
2023-03-22T10:43:42.303Z,11.52
2023-03-22T10:46:45.484Z,11.80
2023-03-22T10:49:54.641Z,11.52
2023-03-22T10:53:12.648Z,12.00
2023-03-22T10:56:18.739Z,12.45
2023-03-22T10:59:47.299Z,11.45
2023-03-22T11:02:58.392Z,11.75
2023-03-22T11:09:22.312Z,10.73
2023-03-22T11:12:24.953Z,11.27
2023-03-22T11:15:32.880Z,11.25
2023-03-22T11:18:35.143Z,11.40
2023-03-22T11:21:37.605Z,11.07
2023-03-22T11:24:39.932Z,12.10
2023-03-22T11:27:56.458Z,11.88
2023-03-22T11:31:06.622Z,12.00
2023-03-22T11:34:17.328Z,12.02
2023-03-22T11:37:22.387Z,11.88
2023-03-22T11:40:31.509Z,10.48
2023-03-22T11:43:42.214Z,11.45
2023-03-22T11:50:05.486Z,11.80
2023-03-22T11:53:15.070Z,11.10
2023-03-22T11:56:21.261Z,10.30
2023-03-22T11:59:29.772Z,10.35
2023-03-22T12:02:44.260Z,10.38
2023-03-22T12:05:50.177Z,9.95
2023-03-22T12:08:58.498Z,10.43
2023-03-22T12:12:03.629Z,10.38
2023-03-22T12:15:10.887Z,9.80
2023-03-22T12:18:22.915Z,9.88
2023-03-22T12:21:25.411Z,10.32
2023-03-22T12:24:32.242Z,11.07
2023-03-22T12:27:38.201Z,10.43
2023-03-22T12:30:53.863Z,10.45
2023-03-22T12:33:59.456Z,10.77
2023-03-22T12:37:05.565Z,9.52
2023-03-22T12:40:24.430Z,9.55
2023-03-22T12:43:42.592Z,9.77
2023-03-22T12:46:49.495Z,9.48
2023-03-22T12:50:12.988Z,9.27
2023-03-22T12:53:17.975Z,8.85
2023-03-22T12:56:26.324Z,8.20
2023-03-22T12:59:31.392Z,8.55
2023-03-22T13:02:36.261Z,8.60
2023-03-22T13:05:39.269Z,8.57
2023-03-22T13:09:08.801Z,9.00
2023-03-22T13:12:17.079Z,7.85
2023-03-22T13:15:41.167Z,8.07
2023-03-22T13:18:44.434Z,6.00
2023-03-22T13:21:49.189Z,6.30
2023-03-22T13:25:08.536Z,5.57
2023-03-22T13:28:26.187Z,5.37
2023-03-22T13:31:38.228Z,5.45
2023-03-22T13:34:46.937Z,4.95
2023-03-22T13:37:51.096Z,5.80
2023-03-22T13:41:02.667Z,5.75
2023-03-22T13:44:36.017Z,5.57
2023-03-22T13:47:45.389Z,5.57
2023-03-22T13:50:48.223Z,5.68
2023-03-22T13:54:00.327Z,4.75
2023-03-22T13:57:03.106Z,4.40
2023-03-22T14:00:20.710Z,4.50
2023-03-22T14:03:29.637Z,5.35
2023-03-22T14:06:36.323Z,6.37
2023-03-22T14:09:48.713Z,5.97
2023-03-22T14:13:14.451Z,6.25
2023-03-22T14:16:45.358Z,6.30
2023-03-22T14:19:49.969Z,6.22
